createdAt,value
2018-03-19T00:00:38.443Z,76.09
2018-03-19T00:03:05.852Z,76.00
2018-03-19T00:05:33.269Z,76.26
2018-03-19T00:08:00.678Z,76.45
2018-03-19T00:10:28.098Z,76.49
2018-03-19T00:12:55.522Z,75.82
2018-03-19T00:15:22.940Z,76.46
2018-03-19T00:17:50.374Z,76.44
2018-03-19T00:20:17.779Z,76.61
2018-03-19T00:22:45.211Z,76.12
2018-03-19T00:25:12.622Z,76.62
2018-03-19T00:27:40.037Z,76.64
2018-03-19T00:30:07.460Z,76.96
2018-03-19T00:32:34.868Z,76.12
2018-03-19T00:35:02.317Z,75.87
2018-03-19T00:37:29.706Z,76.51
2018-03-19T00:39:57.116Z,76.87
2018-03-19T00:42:24.570Z,77.03
2018-03-19T00:44:51.987Z,77.29
2018-03-19T00:47:19.409Z,77.46
2018-03-19T00:49:46.866Z,77.49
2018-03-19T00:52:14.293Z,77.55
2018-03-19T00:54:41.697Z,76.98
2018-03-19T00:57:09.119Z,76.91
2018-03-19T00:59:36.541Z,76.87
2018-03-19T01:02:03.970Z,77.27
2018-03-19T01:04:31.379Z,77.19
2018-03-19T01:06:58.806Z,77.62
2018-03-19T01:09:26.215Z,77.03
2018-03-19T01:11:53.656Z,77.27
2018-03-19T01:14:21.077Z,76.80
2018-03-19T01:16:48.490Z,76.90
2018-03-19T01:19:15.917Z,76.91
2018-03-19T01:21:43.330Z,77.01
2018-03-19T01:24:10.745Z,76.97
2018-03-19T01:26:38.162Z,76.66
2018-03-19T01:29:05.577Z,76.67
2018-03-19T01:31:33.006Z,76.40
2018-03-19T01:34:00.435Z,76.23
2018-03-19T01:36:27.848Z,76.33
2018-03-19T01:38:55.275Z,76.24
2018-03-19T01:41:22.684Z,76.40
2018-03-19T01:43:50.120Z,76.68
2018-03-19T01:46:17.529Z,76.40
2018-03-19T01:48:44.951Z,76.29
2018-03-19T01:51:12.361Z,76.25
2018-03-19T01:53:39.773Z,76.08
2018-03-19T01:56:07.190Z,76.22
2018-03-19T01:58:34.613Z,76.59
2018-03-19T02:01:02.025Z,77.03
2018-03-19T02:03:29.443Z,76.83
2018-03-19T02:05:56.852Z,76.64
2018-03-19T02:08:24.277Z,76.61
2018-03-19T02:10:51.702Z,76.05
2018-03-19T02:13:19.116Z,76.25
2018-03-19T02:15:46.563Z,76.08
2018-03-19T02:18:13.979Z,76.49
2018-03-19T02:20:41.385Z,76.49
2018-03-19T02:23:08.806Z,76.04
2018-03-19T02:25:36.226Z,76.20
2018-03-19T02:28:03.645Z,76.34
2018-03-19T02:30:31.064Z,75.81
2018-03-19T02:32:58.465Z,76.36
2018-03-19T02:35:25.883Z,76.14
2018-03-19T02:37:53.290Z,76.02
2018-03-19T02:40:20.701Z,75.94
2018-03-19T02:42:48.126Z,75.97
2018-03-19T02:45:15.537Z,75.94
2018-03-19T02:47:42.946Z,75.60
2018-03-19T02:50:10.368Z,75.87
2018-03-19T02:52:37.790Z,75.83
2018-03-19T02:55:05.225Z,76.11
2018-03-19T02:57:32.621Z,75.91
2018-03-19T03:00:00.037Z,75.87
2018-03-19T03:02:27.524Z,75.41
2018-03-19T03:04:54.938Z,75.67
2018-03-19T03:07:22.342Z,76.26
2018-03-19T03:09:49.766Z,75.67
2018-03-19T03:12:17.175Z,75.28
2018-03-19T03:14:44.592Z,75.84
2018-03-19T03:17:12.008Z,75.41
2018-03-19T03:19:39.417Z,76.02
2018-03-19T03:22:06.894Z,75.80
2018-03-19T03:24:34.321Z,75.56
2018-03-19T03:27:01.737Z,75.52
2018-03-19T03:29:29.146Z,76.05
2018-03-19T03:31:56.563Z,75.27
2018-03-19T03:34:23.975Z,75.33
2018-03-19T03:36:51.392Z,75.22
2018-03-19T03:39:18.798Z,75.27
2018-03-19T03:41:46.215Z,75.58
2018-03-19T03:44:13.618Z,75.87
2018-03-19T03:46:41.034Z,75.38
2018-03-19T03:49:08.440Z,75.10
2018-03-19T03:51:35.857Z,75.73
2018-03-19T03:54:03.260Z,75.02
2018-03-19T03:56:30.688Z,75.42
2018-03-19T03:58:58.104Z,75.80
2018-03-19T04:01:25.575Z,75.59
2018-03-19T04:03:52.977Z,75.86
2018-03-19T04:06:20.395Z,75.88
2018-03-19T04:08:47.809Z,75.49
2018-03-19T04:11:15.222Z,75.71
2018-03-19T04:13:42.636Z,75.70
2018-03-19T04:16:10.045Z,75.67
2018-03-19T04:18:37.473Z,76.05
2018-03-19T04:21:04.989Z,76.13
2018-03-19T04:23:32.357Z,76.09
2018-03-19T04:25:59.777Z,75.43
2018-03-19T04:28:27.186Z,75.54
2018-03-19T04:30:54.618Z,75.42
2018-03-19T04:33:22.008Z,75.61
2018-03-19T04:35:49.417Z,76.04
2018-03-19T04:38:16.833Z,75.65
2018-03-19T04:40:44.241Z,75.84
2018-03-19T04:43:11.668Z,75.92
2018-03-19T04:45:39.074Z,75.27
2018-03-19T04:48:06.495Z,75.20
2018-03-19T04:50:33.902Z,75.32
2018-03-19T04:53:01.327Z,75.82
2018-03-19T04:55:28.734Z,76.01
2018-03-19T04:57:56.155Z,75.72
2018-03-19T05:00:23.557Z,75.64
2018-03-19T05:02:50.982Z,75.68
2018-03-19T05:05:18.376Z,75.02
2018-03-19T05:07:45.788Z,75.04
2018-03-19T05:10:13.192Z,75.11
2018-03-19T05:12:40.622Z,75.36
2018-03-19T05:15:08.027Z,75.47
2018-03-19T05:17:35.485Z,75.66
2018-03-19T05:20:02.863Z,75.52
2018-03-19T05:22:30.277Z,76.03
2018-03-19T05:24:57.705Z,76.03
2018-03-19T05:27:25.110Z,76.09
2018-03-19T05:29:52.521Z,76.36
2018-03-19T05:32:20.554Z,76.71
2018-03-19T05:34:47.960Z,76.91
2018-03-19T05:37:15.375Z,77.41
2018-03-19T05:39:42.794Z,77.10
2018-03-19T05:42:10.203Z,76.70
2018-03-19T05:44:37.664Z,76.78
2018-03-19T05:47:05.124Z,76.62
2018-03-19T05:49:32.653Z,76.19
2018-03-19T05:52:00.060Z,76.59
2018-03-19T05:54:27.485Z,76.53
2018-03-19T05:56:54.893Z,76.23
2018-03-19T05:59:22.302Z,75.72
2018-03-19T06:01:49.714Z,75.54
2018-03-19T06:04:17.133Z,75.95
2018-03-19T06:06:44.542Z,75.32
2018-03-19T06:09:11.968Z,75.37
2018-03-19T06:11:39.373Z,74.85
2018-03-19T06:14:06.794Z,74.85
2018-03-19T06:16:34.198Z,75.00
2018-03-19T06:19:01.617Z,74.96
2018-03-19T06:21:29.027Z,74.60
2018-03-19T06:23:56.446Z,74.79
2018-03-19T06:26:23.853Z,74.17
2018-03-19T06:28:51.271Z,74.34
2018-03-19T06:31:18.683Z,74.01
2018-03-19T06:33:46.103Z,73.57
2018-03-19T06:36:13.498Z,73.67
2018-03-19T06:38:40.923Z,73.74
2018-03-19T06:41:08.341Z,74.05
2018-03-19T06:43:35.746Z,73.81
2018-03-19T06:46:03.166Z,73.57
2018-03-19T06:48:30.589Z,73.17
2018-03-19T06:50:57.995Z,72.97
2018-03-19T06:53:25.401Z,73.12
2018-03-19T06:55:52.820Z,73.25
2018-03-19T06:58:20.231Z,72.76
2018-03-19T07:00:47.645Z,73.13
2018-03-19T07:03:15.064Z,73.58
2018-03-19T07:05:42.482Z,73.42
2018-03-19T07:08:09.889Z,73.57
2018-03-19T07:10:37.313Z,73.16
2018-03-19T07:13:04.717Z,72.70
2018-03-19T07:15:32.385Z,72.72
2018-03-19T07:17:59.800Z,73.02
2018-03-19T07:20:27.208Z,73.47
2018-03-19T07:22:54.626Z,72.83
2018-03-19T07:25:22.082Z,72.29
2018-03-19T07:27:49.450Z,71.97
2018-03-19T07:30:16.857Z,72.28
2018-03-19T07:32:44.286Z,72.12
2018-03-19T07:35:11.706Z,71.36
2018-03-19T07:37:39.119Z,71.12
2018-03-19T07:40:06.546Z,71.22
2018-03-19T07:42:33.976Z,70.79
2018-03-19T07:45:01.402Z,70.77
2018-03-19T07:47:28.819Z,70.70
2018-03-19T07:49:56.225Z,70.06
2018-03-19T07:52:23.645Z,69.66
2018-03-19T07:54:51.065Z,69.52
2018-03-19T07:57:18.493Z,70.07
2018-03-19T07:59:45.904Z,70.65
2018-03-19T08:02:13.325Z,70.59
2018-03-19T08:04:40.721Z,70.07
2018-03-19T08:07:08.146Z,70.83
2018-03-19T08:09:35.554Z,69.70
2018-03-19T08:12:02.971Z,69.99
2018-03-19T08:14:30.382Z,70.04
2018-03-19T08:16:57.801Z,69.10
2018-03-19T08:19:25.210Z,68.40
2018-03-19T08:21:52.618Z,68.90
2018-03-19T08:24:20.049Z,68.74
2018-03-19T08:29:43.097Z,67.66
2018-03-19T08:32:10.510Z,67.98
2018-03-19T08:34:37.929Z,68.64
2018-03-19T08:37:05.345Z,68.59
2018-03-19T08:39:32.757Z,68.70
2018-03-19T08:42:00.172Z,68.34
2018-03-19T08:44:27.588Z,68.56
2018-03-19T08:46:54.995Z,68.52
2018-03-19T08:49:22.418Z,68.66
2018-03-19T08:51:49.833Z,69.24
2018-03-19T08:54:17.251Z,70.72
2018-03-19T08:56:44.765Z,68.67
2018-03-19T08:59:12.104Z,69.20
2018-03-19T09:01:39.514Z,70.87
2018-03-19T09:04:06.925Z,71.70
2018-03-19T09:06:34.336Z,73.15
2018-03-19T09:09:01.756Z,72.53
2018-03-19T09:11:29.163Z,71.50
2018-03-19T09:13:56.588Z,70.39
2018-03-19T09:16:23.995Z,69.51
2018-03-19T09:18:51.418Z,68.77
2018-03-19T09:21:18.822Z,67.20
2018-03-19T09:23:46.239Z,67.76
2018-03-19T09:26:13.652Z,67.31
2018-03-19T09:28:41.086Z,66.12
2018-03-19T09:31:08.498Z,66.80
2018-03-19T09:33:35.925Z,66.52
2018-03-19T09:36:03.331Z,66.62
2018-03-19T09:38:30.734Z,65.45
2018-03-19T09:40:58.150Z,64.61
2018-03-19T09:43:25.557Z,64.18
2018-03-19T09:45:52.972Z,64.49
2018-03-19T09:48:20.402Z,63.87
2018-03-19T09:50:47.819Z,64.42
2018-03-19T09:53:15.218Z,63.73
2018-03-19T09:55:42.640Z,63.32
2018-03-19T09:58:10.046Z,62.38
2018-03-19T10:00:37.461Z,63.65
2018-03-19T10:03:04.942Z,64.06
2018-03-19T10:05:32.297Z,63.68
2018-03-19T10:07:59.702Z,62.99
2018-03-19T10:13:00.786Z,61.44
2018-03-19T10:15:28.202Z,61.08
2018-03-19T10:17:55.606Z,61.34
2018-03-19T10:20:23.018Z,61.27
2018-03-19T10:22:50.430Z,62.54
2018-03-19T10:25:17.841Z,60.60
2018-03-19T10:27:45.246Z,60.29
2018-03-19T10:30:12.661Z,61.43
2018-03-19T10:32:40.070Z,61.51
2018-03-19T10:35:07.506Z,61.04
2018-03-19T10:37:34.914Z,61.66
2018-03-19T10:40:02.368Z,60.83
2018-03-19T10:42:29.741Z,61.55
2018-03-19T10:44:57.145Z,62.38
2018-03-19T10:47:24.566Z,62.32
2018-03-19T10:49:51.999Z,62.44
2018-03-19T10:52:19.394Z,63.24
2018-03-19T10:54:46.814Z,62.31
2018-03-19T10:57:14.229Z,62.49
2018-03-19T10:59:41.658Z,62.86
2018-03-19T11:02:14.729Z,64.46
2018-03-19T11:04:47.819Z,64.05
2018-03-19T11:07:21.010Z,63.16
2018-03-19T11:09:48.413Z,64.25
2018-03-19T11:12:15.856Z,64.24
2018-03-19T11:14:43.249Z,63.90
2018-03-19T11:17:10.670Z,63.40
2018-03-19T11:19:38.077Z,63.55
2018-03-19T11:22:05.510Z,63.08
2018-03-19T11:24:32.923Z,62.26
2018-03-19T11:27:00.354Z,63.80
2018-03-19T11:29:27.763Z,62.80
2018-03-19T11:31:55.178Z,62.13
2018-03-19T11:34:22.577Z,61.50
2018-03-19T11:36:50.001Z,61.24
2018-03-19T11:39:17.402Z,61.89
2018-03-19T11:41:44.832Z,60.86
2018-03-19T11:44:12.238Z,60.60
2018-03-19T11:46:39.642Z,61.88
2018-03-19T11:49:07.063Z,61.24
2018-03-19T11:51:34.465Z,60.88
2018-03-19T11:54:01.892Z,60.87
2018-03-19T11:56:29.299Z,60.06
2018-03-19T11:58:56.728Z,59.45
2018-03-19T12:01:24.145Z,59.83
2018-03-19T12:03:51.568Z,59.63
2018-03-19T12:06:18.973Z,59.67
2018-03-19T12:08:46.384Z,61.84
2018-03-19T12:11:13.802Z,61.36
2018-03-19T12:13:41.217Z,60.13
2018-03-19T12:16:08.628Z,60.48
2018-03-19T12:18:36.042Z,60.59
2018-03-19T12:21:03.452Z,59.85
2018-03-19T12:23:30.854Z,60.09
2018-03-19T12:25:58.258Z,60.11
2018-03-19T12:28:25.669Z,60.27
2018-03-19T12:30:53.084Z,61.29
2018-03-19T12:33:20.510Z,61.07
2018-03-19T12:35:47.901Z,61.78
2018-03-19T12:38:15.324Z,61.46
2018-03-19T12:40:42.734Z,62.41
2018-03-19T12:43:10.149Z,61.75
2018-03-19T12:45:37.570Z,60.73
2018-03-19T12:48:04.975Z,61.49
2018-03-19T12:50:32.389Z,60.39
2018-03-19T12:52:59.797Z,60.72
2018-03-19T12:55:27.222Z,60.60
2018-03-19T12:57:54.617Z,60.67
2018-03-19T13:00:22.038Z,59.98
2018-03-19T13:02:49.450Z,60.00
2018-03-19T13:05:16.871Z,60.13
2018-03-19T13:07:44.277Z,59.92
2018-03-19T13:10:11.683Z,59.76
2018-03-19T13:12:39.085Z,60.44
2018-03-19T13:15:06.498Z,59.88
2018-03-19T13:17:33.908Z,60.58
2018-03-19T13:20:01.313Z,60.31
2018-03-19T13:22:28.712Z,60.75
2018-03-19T13:24:56.129Z,60.20
2018-03-19T13:27:23.536Z,60.02
2018-03-19T13:29:50.950Z,60.00
2018-03-19T13:32:18.358Z,60.03
2018-03-19T13:34:45.754Z,60.27
2018-03-19T13:37:13.167Z,59.33
2018-03-19T13:39:40.590Z,59.79
2018-03-19T13:42:07.998Z,60.06
2018-03-19T13:44:35.405Z,59.55
2018-03-19T13:47:02.823Z,59.66
2018-03-19T13:49:30.241Z,59.72
2018-03-19T13:51:57.649Z,59.70
2018-03-19T13:54:25.059Z,59.98
2018-03-19T13:56:52.465Z,60.35
2018-03-19T13:59:19.877Z,60.90
2018-03-19T14:01:47.290Z,60.93
2018-03-19T14:04:14.713Z,60.36
2018-03-19T14:06:42.128Z,61.49
2018-03-19T14:09:09.534Z,61.60
2018-03-19T14:11:36.953Z,62.25
2018-03-19T14:14:04.366Z,61.49
2018-03-19T14:16:31.789Z,61.56
2018-03-19T14:18:59.190Z,61.85
2018-03-19T14:21:26.667Z,61.76
2018-03-19T14:23:54.030Z,62.55
2018-03-19T14:26:21.446Z,61.79
2018-03-19T14:28:48.883Z,61.63
2018-03-19T14:31:16.257Z,61.14
2018-03-19T14:33:43.674Z,61.18
2018-03-19T14:36:11.089Z,61.63
2018-03-19T14:38:38.496Z,60.18
2018-03-19T14:41:05.917Z,60.66
2018-03-19T14:43:34.146Z,60.58
2018-03-19T14:46:01.546Z,60.18
2018-03-19T14:48:28.964Z,60.52
2018-03-19T14:50:56.376Z,59.86
2018-03-19T14:53:23.794Z,60.13
2018-03-19T14:55:51.204Z,60.31
2018-03-19T14:58:18.612Z,60.24
2018-03-19T15:00:46.014Z,60.39
2018-03-19T15:03:13.429Z,60.41
2018-03-19T15:05:40.844Z,59.87
2018-03-19T15:08:08.253Z,60.93
2018-03-19T15:10:35.663Z,59.94
2018-03-19T15:13:03.085Z,60.41
2018-03-19T15:15:30.493Z,60.64
2018-03-19T15:17:57.915Z,60.27
2018-03-19T15:20:25.318Z,60.02
2018-03-19T15:22:52.740Z,61.66
2018-03-19T15:25:20.141Z,60.00
2018-03-19T15:27:47.569Z,60.98
2018-03-19T15:30:14.982Z,60.41
2018-03-19T15:32:42.395Z,61.06
2018-03-19T15:35:09.810Z,62.20
2018-03-19T15:37:37.213Z,61.65
2018-03-19T15:40:04.622Z,60.57
2018-03-19T15:42:32.028Z,59.79
2018-03-19T15:44:59.437Z,59.50
2018-03-19T15:47:26.857Z,60.50
2018-03-19T15:49:54.264Z,60.85
2018-03-19T15:52:21.669Z,61.27
2018-03-19T15:54:49.088Z,61.42
2018-03-19T15:57:16.508Z,60.66
2018-03-19T15:59:43.913Z,60.60
2018-03-19T16:02:11.317Z,60.67
2018-03-19T16:04:38.728Z,60.94
2018-03-19T16:07:06.129Z,60.94
2018-03-19T16:09:33.535Z,60.78
2018-03-19T16:12:00.941Z,61.74
2018-03-19T16:14:28.353Z,60.44
2018-03-19T16:16:55.759Z,60.41
2018-03-19T16:19:23.167Z,59.78
2018-03-19T16:21:50.569Z,60.35
2018-03-19T16:24:17.973Z,60.29
2018-03-19T16:26:45.381Z,60.22
2018-03-19T16:29:12.790Z,60.35
2018-03-19T16:31:40.193Z,59.56
2018-03-19T16:34:07.610Z,60.43
2018-03-19T16:36:35.008Z,60.50
2018-03-19T16:39:02.413Z,60.09
2018-03-19T16:41:29.822Z,60.55
2018-03-19T16:43:57.238Z,58.97
2018-03-19T16:46:24.645Z,58.17
2018-03-19T16:48:52.057Z,57.78
2018-03-19T16:51:19.474Z,57.04
2018-03-19T16:53:46.894Z,57.22
2018-03-19T16:56:14.303Z,56.99
2018-03-19T16:58:41.721Z,57.43
2018-03-19T17:01:09.119Z,56.58
2018-03-19T17:03:36.530Z,56.20
2018-03-19T17:06:03.944Z,55.01
2018-03-19T17:08:31.351Z,55.45
2018-03-19T17:10:58.747Z,55.69
2018-03-19T17:13:26.158Z,56.13
2018-03-19T17:15:53.574Z,55.96
2018-03-19T17:18:20.996Z,56.55
2018-03-19T17:20:48.401Z,55.91
2018-03-19T17:23:15.817Z,56.54
2018-03-19T17:25:43.231Z,56.90
2018-03-19T17:28:10.638Z,57.47
2018-03-19T17:30:38.097Z,57.74
2018-03-19T17:33:05.466Z,58.03
2018-03-19T17:35:32.880Z,56.59
2018-03-19T17:38:00.289Z,56.05
2018-03-19T17:40:27.714Z,56.77
2018-03-19T17:42:55.133Z,56.76
2018-03-19T17:45:22.546Z,57.44
2018-03-19T17:47:49.957Z,58.06
2018-03-19T17:50:17.373Z,57.55
2018-03-19T17:52:44.795Z,56.68
2018-03-19T17:55:12.213Z,56.78
2018-03-19T17:57:39.622Z,57.58
2018-03-19T18:00:07.039Z,57.82
2018-03-19T18:02:34.455Z,56.67
2018-03-19T18:05:01.864Z,57.25
2018-03-19T18:07:29.262Z,56.63
2018-03-19T18:09:56.693Z,57.39
2018-03-19T18:12:24.158Z,58.57
2018-03-19T18:14:51.522Z,57.23
2018-03-19T18:17:18.945Z,57.30
2018-03-19T18:19:46.930Z,57.91
2018-03-19T18:22:14.351Z,57.35
2018-03-19T18:24:41.757Z,57.63
2018-03-19T18:27:09.180Z,57.58
2018-03-19T18:29:36.586Z,57.53
2018-03-19T18:32:04.004Z,58.54
2018-03-19T18:34:31.413Z,58.08
2018-03-19T18:36:58.856Z,58.91
2018-03-19T18:39:26.264Z,58.76
2018-03-19T18:41:53.683Z,58.71
2018-03-19T18:44:21.103Z,58.50
2018-03-19T18:46:48.533Z,59.61
2018-03-19T18:49:15.937Z,59.83
2018-03-19T18:51:43.357Z,59.55
2018-03-19T18:54:10.769Z,59.16
2018-03-19T18:56:38.407Z,59.94
2018-03-19T18:59:05.823Z,59.64
2018-03-19T19:01:33.236Z,59.64
2018-03-19T19:04:00.657Z,60.20
2018-03-19T19:06:28.089Z,59.72
2018-03-19T19:08:55.489Z,59.42
2018-03-19T19:11:22.908Z,58.88
2018-03-19T19:13:50.327Z,58.85
2018-03-19T19:16:17.741Z,58.92
2018-03-19T19:18:45.163Z,59.45
2018-03-19T19:21:12.578Z,59.35
2018-03-19T19:23:39.998Z,58.95
2018-03-19T19:26:07.405Z,59.47
2018-03-19T19:28:34.829Z,59.90
2018-03-19T19:31:02.251Z,60.55
2018-03-19T19:33:29.694Z,62.46
2018-03-19T19:35:57.095Z,61.28
2018-03-19T19:38:24.508Z,60.73
2018-03-19T19:40:51.913Z,61.24
2018-03-19T19:43:19.335Z,60.87
2018-03-19T19:45:46.746Z,60.76
2018-03-19T19:48:14.167Z,61.24
2018-03-19T19:50:41.569Z,60.10
2018-03-19T19:53:08.998Z,60.76
2018-03-19T19:55:36.409Z,61.71
2018-03-19T19:58:03.826Z,62.79
2018-03-19T20:00:31.358Z,62.62
2018-03-19T20:02:58.850Z,63.20
2018-03-19T20:05:26.261Z,63.18
2018-03-19T20:08:25.991Z,62.44
2018-03-19T20:15:42.946Z,62.37
2018-03-19T20:18:10.366Z,61.52
2018-03-19T20:20:37.785Z,61.04
2018-03-19T20:23:05.205Z,61.02
2018-03-19T20:25:32.623Z,61.50
2018-03-19T20:28:00.042Z,61.04
2018-03-19T20:30:27.471Z,61.28
2018-03-19T20:32:54.885Z,60.05
2018-03-19T20:35:22.314Z,60.68
2018-03-19T20:37:49.725Z,63.34
2018-03-19T20:40:17.150Z,59.13
2018-03-19T20:42:44.579Z,59.70
2018-03-19T20:45:12.068Z,59.98
2018-03-19T20:47:39.496Z,59.92
2018-03-19T20:50:07.346Z,59.75
2018-03-19T20:52:34.854Z,59.97
2018-03-19T20:55:02.279Z,60.18
2018-03-19T20:57:29.690Z,59.78
2018-03-19T20:59:57.110Z,59.64
2018-03-19T21:02:24.550Z,60.47
2018-03-19T21:04:51.966Z,60.08
2018-03-19T21:07:19.383Z,59.86
2018-03-19T21:09:46.826Z,58.67
2018-03-19T21:12:14.284Z,59.11
2018-03-19T21:14:42.014Z,59.48
2018-03-19T21:17:09.429Z,59.34
2018-03-19T21:19:36.862Z,60.47
2018-03-19T21:22:04.276Z,60.19
2018-03-19T21:24:31.701Z,59.93
2018-03-19T21:26:59.115Z,59.72
2018-03-19T21:29:26.534Z,60.66
2018-03-19T21:31:53.963Z,61.07
2018-03-19T21:34:21.418Z,60.79
2018-03-19T21:36:48.847Z,60.62
2018-03-19T21:39:16.249Z,61.09
2018-03-19T21:41:43.764Z,61.70
2018-03-19T21:44:11.263Z,62.11
2018-03-19T21:46:38.782Z,62.31
2018-03-19T21:49:06.243Z,61.47
2018-03-19T21:51:33.713Z,61.05
2018-03-19T21:54:01.167Z,61.21
2018-03-19T21:56:28.662Z,62.15
2018-03-19T21:58:56.107Z,62.16
2018-03-19T22:02:40.551Z,61.18
2018-03-19T22:05:07.969Z,59.77
2018-03-19T22:07:35.378Z,59.69
2018-03-19T22:10:02.817Z,60.07
2018-03-19T22:12:30.222Z,60.72
2018-03-19T22:14:57.650Z,61.33
2018-03-19T22:17:25.062Z,61.55
2018-03-19T22:19:52.469Z,61.04
2018-03-19T22:22:19.904Z,62.24
2018-03-19T22:24:47.315Z,61.83
2018-03-19T22:27:15.489Z,61.90
2018-03-19T22:29:42.902Z,62.44
2018-03-19T22:32:10.323Z,62.13
2018-03-19T22:34:37.736Z,62.60
2018-03-19T22:37:05.171Z,62.84
2018-03-19T22:39:32.570Z,62.80
2018-03-19T22:41:59.988Z,63.07
2018-03-19T22:44:27.408Z,62.99
2018-03-19T22:46:54.826Z,63.79
2018-03-19T22:49:22.236Z,63.36
2018-03-19T22:51:49.650Z,63.55
2018-03-19T22:54:17.064Z,63.71
2018-03-19T22:56:44.490Z,63.97
2018-03-19T22:59:11.912Z,63.96
2018-03-19T23:01:39.333Z,64.38
2018-03-19T23:04:06.746Z,64.85
2018-03-19T23:06:34.162Z,64.81
2018-03-19T23:09:01.573Z,65.30
2018-03-19T23:11:29.003Z,65.27
2018-03-19T23:13:56.415Z,64.67
2018-03-19T23:16:23.850Z,64.82
2018-03-19T23:18:51.258Z,66.06
2018-03-19T23:21:18.687Z,65.28
2018-03-19T23:23:46.097Z,65.24
2018-03-19T23:26:13.524Z,65.05
2018-03-19T23:28:40.930Z,64.79
2018-03-19T23:31:08.354Z,65.30
2018-03-19T23:33:35.768Z,65.35
2018-03-19T23:36:03.179Z,65.64
2018-03-19T23:38:30.595Z,66.88
2018-03-19T23:40:58.024Z,65.76
2018-03-19T23:43:25.426Z,66.08
2018-03-19T23:45:52.851Z,66.43
2018-03-19T23:48:20.249Z,66.03
2018-03-19T23:50:48.134Z,66.31
2018-03-19T23:53:15.555Z,66.47
2018-03-19T23:55:42.974Z,65.87
2018-03-19T23:58:10.396Z,66.69
